Sandown, New Hampshire
Current Conditions -  °F | °C
As of 12:53 AM on Sunday 21 Dec 2014 (Local Time) from KMHT Reporting Station
Overcast Overcast  
Wind Chill: 22°   Ceiling: 4900
Heat Index: 30°   Visibility: 10mi
Dew Point: 22°   Wind: 9mph
Humidity: 72%   Direction: 10°N
Pressure: 30.28"   Gusts: NA
Location:  42.93°N, 71.19°W
Report Text: KMHT 210553Z 01008KT 10SM OVC049 M01/M06 A3028 RMK AO2 SLP272 T10111056 10000 21011 58006
Loading
Personal Weather Stations






























Interactive Weather Map New forecast layout! Learn more

10-Day Weather Forecast

Advertisements
Track Severe Weather on mobile